Etusivu
METAR-TAF:

METAR-TAF

Lentoasemat :

Alexandria, Louisiana, Yhdysvallat

Leveyspiiri: 31-23-42N, Pituuspiiri: 092-17-25W, korkeus merenpinnasta: 34 m

Tämänhetkinen sää

Tämä raportti tehtiin 31 minuuttia sitten, kello 13.53 UTC
tyyntä
Lämpötila 14°C
Kosteus 88%
Ilmanpaine 1010 hPa
Näkyvyys: 16.1 km
Muutamia pilviä 2700 ft:n korkeudessa

METAR: KESF 191353Z AUTO 00000KT 10SM FEW027 14/12 A2982 RMK AO2 SLP096 T01390122

Aika: 09:24 (14:24 UTC)


TAF: puuttuu

Säähavainnot ja -ennusteet yli 4000 lentoasemalta (METAR- ja TAF-raportit).

Käytössä olevat sääasemat on merkitty karttaan keltaisilla ja punaisilla pisteillä.

Aseta hiiri pisteen päälle nähdäksesi sääaseman nimen.

Klikkaa sitten nähdäksesi säähavainnot ja -ennusteet.

Kartan vaihtaminen: klikkaa mustalla rastilla varustettuja vihreitä pisteitä, niin voit zoomata sisään; viivalla varustettua vihreää pistettä, niin voit zoomata ulos tai vihreitä nuolia, niin pääset viereisille kartoille.


METAR-TAF: